Home   Weather   France   Avignon   Past weeks
Flag for France

Past Weather in Avignon, Vaucluse, France — Yesterday and Last 2 Weeks

Currently: 37 °F. Overcast. (Weather station: Caumont, France). See more current weather

Past Weather in Avignon — Graph

°F

Avignon Temperature Yesterday

Maximum temperature yesterday: 43 °F (at 2:00 pm)
Minimum temperature yesterday: 34 °F (at 4:00 am)
Average temperature yesterday: 37 °F

High & Low Weather Summary for the Past Weeks

 TemperatureHumidityPressure
High61 °F (Jan 13, 3:30 pm)100% (Jan 13, 3:00 am)30.36 "Hg (Jan 13, 3:00 am)
Low25 °F (Jan 24, 8:00 am)42% (Jan 21, 4:00 pm)29.15 "Hg (Jan 17, 4:00 pm)
Average40 °F71%29.94 "Hg
* Reported Jan 13 12:00 am — Jan 28 12:30 am, Avignon. Weather by CustomWeather, © 2023

Note: Actual official high and low records may vary slightly from our data, if they occured in-between our weather recording intervals... More about our weather records

Avignon Weather History for the Previous 24 Hours

Scroll right to see more
 ConditionsComfort  
Time TempWeatherWind HumidityBarometerVisibility
12:30 am
Sat, Jan 28
37 °FOvercast.21 mph65%29.98 "HgN/A
12:00 am37 °FOvercast.20 mph65%29.98 "HgN/A
11:00 pm
Fri, Jan 27
37 °FOvercast.18 mph65%29.98 "HgN/A
10:30 pm37 °FOvercast.18 mph65%29.95 "HgN/A
10:00 pm37 °FPassing clouds.17 mph65%29.95 "HgN/A
9:30 pm36 °FClear.20 mph70%29.95 "Hg10 mi
9:00 pm36 °FClear.23 mph70%29.95 "Hg10 mi
8:30 pm36 °FClear.25 mph70%29.95 "Hg10 mi
8:00 pm36 °FClear.22 mph70%29.95 "Hg10 mi
7:00 pm36 °FClear.22 mph70%29.95 "Hg10 mi
6:30 pm36 °FClear.23 mph65%29.95 "Hg10 mi
6:00 pm36 °FClear.22 mph70%29.95 "Hg10 mi
5:00 pm37 °FSunny.24 mph65%29.92 "Hg10 mi
4:30 pm39 °FSunny.26 mph61%29.92 "Hg10 mi
4:00 pm39 °FPassing clouds.24 mph61%29.92 "HgN/A
3:00 pm41 °FPartly sunny.24 mph57%29.92 "HgN/A
2:30 pm41 °FBroken clouds.20 mph57%29.92 "HgN/A
2:00 pm43 °FSunny.22 mph53%29.89 "Hg10 mi
1:00 pm41 °FSunny.23 mph57%29.92 "Hg10 mi
12:30 pm41 °FSunny.20 mph57%29.92 "Hg10 mi
12:00 pm41 °FSunny.20 mph57%29.92 "Hg10 mi
11:30 am39 °FSunny.21 mph61%29.92 "Hg10 mi
11:00 am39 °FSunny.21 mph65%29.92 "Hg10 mi
10:30 am37 °FClear.20 mph65%29.92 "Hg6 mi
10:00 am36 °FSunny.18 mph70%29.92 "Hg10 mi
9:30 am36 °FSunny.22 mph65%29.92 "Hg10 mi
9:00 am34 °FSunny.22 mph75%29.89 "Hg10 mi
8:30 am34 °FSunny.23 mph70%29.89 "Hg10 mi
8:00 am34 °FClear.22 mph70%29.89 "Hg10 mi
7:00 am34 °FClear.21 mph70%29.89 "Hg10 mi
6:30 am34 °FClear.21 mph75%29.86 "Hg10 mi
6:00 am34 °FClear.20 mph75%29.86 "Hg10 mi
5:30 am34 °FClear.20 mph75%29.86 "Hg10 mi
5:00 am34 °FClear.21 mph75%29.86 "Hg10 mi
4:30 am34 °FClear.21 mph75%29.86 "Hg10 mi
4:00 am34 °FClear.18 mph75%29.89 "Hg10 mi
3:30 am36 °FClear.20 mph70%29.89 "Hg10 mi
3:00 am36 °FClear.21 mph70%29.89 "Hg10 mi
2:30 am36 °FClear.21 mph70%29.89 "Hg10 mi
2:00 am36 °FClear.23 mph70%29.89 "Hg10 mi
Weather by CustomWeather, © 2023

See weather overview